sensor_id;sensor_type;location;lat;lon;timestamp;pressure;altitude;pressure_sealevel;temperature;humidity
69911;BME280;63555;49.920;17.868;2023-04-08T00:03:07;98749.47;;;1.91;96.26
69911;BME280;63555;49.920;17.868;2023-04-08T00:08:07;98746.72;;;1.94;96.98
69911;BME280;63555;49.920;17.868;2023-04-08T00:13:08;98748.34;;;1.97;96.45
69911;BME280;63555;49.920;17.868;2023-04-08T00:18:08;98756.09;;;1.98;97.09
69911;BME280;63555;49.920;17.868;2023-04-08T00:23:08;98760.25;;;2.02;97.37
69911;BME280;63555;49.920;17.868;2023-04-08T00:28:09;98758.50;;;2.03;96.41
69911;BME280;63555;49.920;17.868;2023-04-08T00:33:09;98753.25;;;2.04;96.50
69911;BME280;63555;49.920;17.868;2023-04-08T00:38:10;98761.81;;;2.06;96.95
69911;BME280;63555;49.920;17.868;2023-04-08T00:43:10;98760.13;;;2.05;96.97
69911;BME280;63555;49.920;17.868;2023-04-08T00:48:11;98764.38;;;2.08;97.10
69911;BME280;63555;49.920;17.868;2023-04-08T00:53:14;98769.56;;;2.08;96.61
69911;BME280;63555;49.920;17.868;2023-04-08T00:58:16;98762.59;;;2.08;96.69
69911;BME280;63555;49.920;17.868;2023-04-08T01:03:26;98772.28;;;2.05;96.81
69911;BME280;63555;49.920;17.868;2023-04-08T01:08:29;98779.19;;;2.06;97.15
69911;BME280;63555;49.920;17.868;2023-04-08T01:13:33;98773.78;;;2.10;96.54
69911;BME280;63555;49.920;17.868;2023-04-08T01:18:37;98774.56;;;2.12;97.54
69911;BME280;63555;49.920;17.868;2023-04-08T01:24:00;98782.25;;;2.15;97.42
69911;BME280;63555;49.920;17.868;2023-04-08T01:29:04;98777.91;;;2.16;96.90
69911;BME280;63555;49.920;17.868;2023-04-08T01:34:06;98766.59;;;2.17;97.15
69911;BME280;63555;49.920;17.868;2023-04-08T01:39:07;98765.75;;;2.16;96.85
69911;BME280;63555;49.920;17.868;2023-04-08T01:44:09;98771.84;;;2.15;96.95
69911;BME280;63555;49.920;17.868;2023-04-08T01:49:11;98783.94;;;2.16;97.46
69911;BME280;63555;49.920;17.868;2023-04-08T01:54:11;98783.94;;;2.16;97.28
69911;BME280;63555;49.920;17.868;2023-04-08T01:59:14;98785.84;;;2.13;96.99
69911;BME280;63555;49.920;17.868;2023-04-08T02:04:16;98787.59;;;2.12;96.93
69911;BME280;63555;49.920;17.868;2023-04-08T02:09:16;98792.84;;;2.11;97.29
69911;BME280;63555;49.920;17.868;2023-04-08T02:14:16;98792.91;;;2.09;97.26
69911;BME280;63555;49.920;17.868;2023-04-08T02:24:40;98800.72;;;2.09;97.07
69911;BME280;63555;49.920;17.868;2023-04-08T02:29:42;98807.66;;;2.09;97.39
69911;BME280;63555;49.920;17.868;2023-04-08T02:34:43;98807.53;;;2.12;97.07
69911;BME280;63555;49.920;17.868;2023-04-08T02:39:43;98806.63;;;2.13;97.38
69911;BME280;63555;49.920;17.868;2023-04-08T02:44:43;98812.69;;;2.13;97.05
69911;BME280;63555;49.920;17.868;2023-04-08T02:49:44;98806.63;;;2.13;96.99
69911;BME280;63555;49.920;17.868;2023-04-08T02:54:44;98811.78;;;2.14;97.19
69911;BME280;63555;49.920;17.868;2023-04-08T02:59:44;98820.44;;;2.15;97.31
69911;BME280;63555;49.920;17.868;2023-04-08T03:04:45;98833.31;;;2.18;97.43
69911;BME280;63555;49.920;17.868;2023-04-08T03:09:45;98832.22;;;2.23;97.12
69911;BME280;63555;49.920;17.868;2023-04-08T03:14:45;98832.03;;;2.28;97.10
69911;BME280;63555;49.920;17.868;2023-04-08T03:19:46;98843.09;;;2.33;97.50
69911;BME280;63555;49.920;17.868;2023-04-08T03:24:46;98835.34;;;2.32;97.01
69911;BME280;63555;49.920;17.868;2023-04-08T03:29:46;98834.44;;;2.33;97.67
69911;BME280;63555;49.920;17.868;2023-04-08T03:34:47;98837.88;;;2.33;97.03
69911;BME280;63555;49.920;17.868;2023-04-08T03:39:50;98844.97;;;2.30;96.94
69911;BME280;63555;49.920;17.868;2023-04-08T03:44:50;98854.53;;;2.29;97.05
69911;BME280;63555;49.920;17.868;2023-04-08T03:49:53;98854.72;;;2.24;97.25
69911;BME280;63555;49.920;17.868;2023-04-08T03:54:54;98860.03;;;2.21;97.55
69911;BME280;63555;49.920;17.868;2023-04-08T03:59:54;98872.16;;;2.22;96.91
69911;BME280;63555;49.920;17.868;2023-04-08T04:04:54;98868.69;;;2.22;97.34
69911;BME280;63555;49.920;17.868;2023-04-08T04:09:54;98880.78;;;2.23;97.71
69911;BME280;63555;49.920;17.868;2023-04-08T04:14:56;98885.16;;;2.22;97.61
69911;BME280;63555;49.920;17.868;2023-04-08T04:19:56;98888.53;;;2.24;97.58
69911;BME280;63555;49.920;17.868;2023-04-08T04:24:56;98889.31;;;2.27;97.75
69911;BME280;63555;49.920;17.868;2023-04-08T04:29:57;98891.69;;;2.33;97.88
69911;BME280;63555;49.920;17.868;2023-04-08T04:34:57;98894.22;;;2.34;97.45
69911;BME280;63555;49.920;17.868;2023-04-08T04:39:57;98906.19;;;2.38;97.97
69911;BME280;63555;49.920;17.868;2023-04-08T04:44:58;98901.06;;;2.37;97.34
69911;BME280;63555;49.920;17.868;2023-04-08T04:49:58;98914.97;;;2.36;97.15
69911;BME280;63555;49.920;17.868;2023-04-08T04:54:59;98920.00;;;2.40;97.51
69911;BME280;63555;49.920;17.868;2023-04-08T05:00:00;98922.66;;;2.39;97.78
69911;BME280;63555;49.920;17.868;2023-04-08T05:05:00;98918.13;;;2.44;96.92
69911;BME280;63555;49.920;17.868;2023-04-08T05:10:01;98928.34;;;2.48;97.79
69911;BME280;63555;49.920;17.868;2023-04-08T05:15:02;98936.22;;;2.47;97.62
69911;BME280;63555;49.920;17.868;2023-04-08T05:20:03;98942.31;;;2.46;96.83
69911;BME280;63555;49.920;17.868;2023-04-08T05:25:04;98947.34;;;2.50;97.68
69911;BME280;63555;49.920;17.868;2023-04-08T05:30:06;98949.81;;;2.53;97.65
69911;BME280;63555;49.920;17.868;2023-04-08T05:35:08;98955.81;;;2.55;97.07
69911;BME280;63555;49.920;17.868;2023-04-08T05:40:09;98961.03;;;2.55;97.46
69911;BME280;63555;49.920;17.868;2023-04-08T05:45:09;98962.66;;;2.58;96.79
69911;BME280;63555;49.920;17.868;2023-04-08T05:50:10;98965.94;;;2.63;96.93
69911;BME280;63555;49.920;17.868;2023-04-08T05:55:11;98971.88;;;2.67;97.79
69911;BME280;63555;49.920;17.868;2023-04-08T06:00:12;98971.44;;;2.77;97.42
69911;BME280;63555;49.920;17.868;2023-04-08T06:05:12;98981.63;;;2.83;97.12
69911;BME280;63555;49.920;17.868;2023-04-08T06:10:13;98977.72;;;2.94;97.12
69911;BME280;63555;49.920;17.868;2023-04-08T06:15:13;98970.69;;;3.16;97.34
69911;BME280;63555;49.920;17.868;2023-04-08T06:20:13;98980.41;;;3.33;97.42
69911;BME280;63555;49.920;17.868;2023-04-08T06:25:14;98983.00;;;3.33;97.18
69911;BME280;63555;49.920;17.868;2023-04-08T06:30:14;98996.03;;;3.33;97.13
69911;BME280;63555;49.920;17.868;2023-04-08T06:35:15;99007.78;;;3.43;97.02
69911;BME280;63555;49.920;17.868;2023-04-08T06:40:16;99015.53;;;3.44;97.51
69911;BME280;63555;49.920;17.868;2023-04-08T06:45:16;99025.16;;;3.42;97.56
69911;BME280;63555;49.920;17.868;2023-04-08T06:50:17;99036.13;;;3.30;96.54
69911;BME280;63555;49.920;17.868;2023-04-08T06:55:17;99037.28;;;3.23;96.52
69911;BME280;63555;49.920;17.868;2023-04-08T07:00:17;99049.78;;;3.15;96.96
69911;BME280;63555;49.920;17.868;2023-04-08T07:05:18;99051.47;;;3.16;97.18
69911;BME280;63555;49.920;17.868;2023-04-08T07:10:18;99055.66;;;3.20;96.88
69911;BME280;63555;49.920;17.868;2023-04-08T07:15:19;99068.69;;;3.20;96.82
69911;BME280;63555;49.920;17.868;2023-04-08T07:20:19;99057.22;;;3.24;96.75
69911;BME280;63555;49.920;17.868;2023-04-08T07:25:19;99074.34;;;3.30;96.82
69911;BME280;63555;49.920;17.868;2023-04-08T07:30:20;99074.28;;;3.31;97.28
69911;BME280;63555;49.920;17.868;2023-04-08T07:35:21;99075.69;;;3.40;96.68
69911;BME280;63555;49.920;17.868;2023-04-08T07:40:25;99080.41;;;3.52;96.81
69911;BME280;63555;49.920;17.868;2023-04-08T07:45:25;99073.22;;;3.77;97.33
69911;BME280;63555;49.920;17.868;2023-04-08T07:50:25;99082.75;;;3.99;97.47
69911;BME280;63555;49.920;17.868;2023-04-08T07:55:26;99097.13;;;4.07;97.44
69911;BME280;63555;49.920;17.868;2023-04-08T08:00:26;99109.47;;;4.04;96.68
69911;BME280;63555;49.920;17.868;2023-04-08T08:05:29;99120.63;;;3.87;96.52
69911;BME280;63555;49.920;17.868;2023-04-08T08:10:29;99114.72;;;3.83;96.04
69911;BME280;63555;49.920;17.868;2023-04-08T08:15:30;99121.50;;;3.88;96.41
69911;BME280;63555;49.920;17.868;2023-04-08T08:20:30;99120.88;;;4.01;96.58
69911;BME280;63555;49.920;17.868;2023-04-08T08:25:30;99120.38;;;4.32;96.98
69911;BME280;63555;49.920;17.868;2023-04-08T08:30:31;99131.38;;;4.59;97.17
69911;BME280;63555;49.920;17.868;2023-04-08T08:35:31;99126.50;;;4.89;96.98
69911;BME280;63555;49.920;17.868;2023-04-08T08:40:32;99136.47;;;5.00;96.63
69911;BME280;63555;49.920;17.868;2023-04-08T08:45:32;99132.66;;;5.07;96.63
69911;BME280;63555;49.920;17.868;2023-04-08T08:50:32;99137.25;;;5.21;96.45
69911;BME280;63555;49.920;17.868;2023-04-08T08:55:33;99147.56;;;5.24;95.48
69911;BME280;63555;49.920;17.868;2023-04-08T09:00:38;99151.63;;;5.10;95.15
69911;BME280;63555;49.920;17.868;2023-04-08T09:10:48;99178.41;;;4.97;95.37
69911;BME280;63555;49.920;17.868;2023-04-08T09:16:02;99179.84;;;5.04;95.49
69911;BME280;63555;49.920;17.868;2023-04-08T09:21:04;99186.03;;;5.39;96.62
69911;BME280;63555;49.920;17.868;2023-04-08T09:26:21;99181.88;;;5.71;96.62
69911;BME280;63555;49.920;17.868;2023-04-08T09:31:24;99184.69;;;6.02;96.27
69911;BME280;63555;49.920;17.868;2023-04-08T09:36:25;99187.94;;;6.07;95.41
69911;BME280;63555;49.920;17.868;2023-04-08T09:41:27;99191.72;;;5.83;94.35
69911;BME280;63555;49.920;17.868;2023-04-08T09:52:10;99201.66;;;5.76;94.61
69911;BME280;63555;49.920;17.868;2023-04-08T09:57:15;99207.47;;;5.64;94.67
69911;BME280;63555;49.920;17.868;2023-04-08T10:02:28;99209.69;;;5.91;94.94
69911;BME280;63555;49.920;17.868;2023-04-08T10:07:30;99215.81;;;6.26;95.87
69911;BME280;63555;49.920;17.868;2023-04-08T10:12:30;99203.19;;;6.34;94.11
69911;BME280;63555;49.920;17.868;2023-04-08T10:17:31;99201.25;;;6.70;94.95
69911;BME280;63555;49.920;17.868;2023-04-08T10:22:45;99209.81;;;6.74;93.66
69911;BME280;63555;49.920;17.868;2023-04-08T10:27:47;99220.56;;;6.85;94.50
69911;BME280;63555;49.920;17.868;2023-04-08T10:32:47;99219.09;;;6.97;94.43
69911;BME280;63555;49.920;17.868;2023-04-08T10:37:48;99222.72;;;6.94;93.94
69911;BME280;63555;49.920;17.868;2023-04-08T10:42:57;99213.44;;;6.71;92.01
69911;BME280;63555;49.920;17.868;2023-04-08T10:48:17;99214.47;;;6.52;92.95
69911;BME280;63555;49.920;17.868;2023-04-08T10:53:24;99212.50;;;6.72;94.32
69911;BME280;63555;49.920;17.868;2023-04-08T10:58:26;99214.56;;;7.16;94.04
69911;BME280;63555;49.920;17.868;2023-04-08T11:03:26;99212.59;;;7.83;95.15
69911;BME280;63555;49.920;17.868;2023-04-08T11:08:27;99192.19;;;9.46;96.80
69911;BME280;63555;49.920;17.868;2023-04-08T11:13:29;99190.00;;;12.18;94.05
69911;BME280;63555;49.920;17.868;2023-04-08T11:18:30;99190.16;;;14.37;85.85
69911;BME280;63555;49.920;17.868;2023-04-08T11:23:31;99198.78;;;14.71;81.80
69911;BME280;63555;49.920;17.868;2023-04-08T11:28:31;99194.66;;;14.04;82.73
69911;BME280;63555;49.920;17.868;2023-04-08T11:33:32;99198.22;;;13.17;80.57
69911;BME280;63555;49.920;17.868;2023-04-08T11:38:38;99199.44;;;12.09;83.10
69911;BME280;63555;49.920;17.868;2023-04-08T11:43:50;99203.06;;;11.47;85.96
69911;BME280;63555;49.920;17.868;2023-04-08T11:48:57;99194.41;;;10.96;85.84
69911;BME280;63555;49.920;17.868;2023-04-08T11:53:58;99195.25;;;10.71;86.21
69911;BME280;63555;49.920;17.868;2023-04-08T11:58:58;99188.09;;;11.96;89.27
69911;BME280;63555;49.920;17.868;2023-04-08T12:04:00;99176.75;;;14.38;81.80
69911;BME280;63555;49.920;17.868;2023-04-08T12:09:01;99181.09;;;14.60;77.75
69911;BME280;63555;49.920;17.868;2023-04-08T12:14:01;99177.78;;;13.62;78.25
69911;BME280;63555;49.920;17.868;2023-04-08T12:19:01;99175.53;;;12.57;80.42
69911;BME280;63555;49.920;17.868;2023-04-08T12:24:02;99178.44;;;11.84;82.48
69911;BME280;63555;49.920;17.868;2023-04-08T12:29:02;99178.69;;;11.92;82.50
69911;BME280;63555;49.920;17.868;2023-04-08T12:34:03;99177.63;;;11.70;82.51
69911;BME280;63555;49.920;17.868;2023-04-08T12:39:03;99170.72;;;11.57;83.61
69911;BME280;63555;49.920;17.868;2023-04-08T12:44:03;99163.66;;;12.85;84.04
69911;BME280;63555;49.920;17.868;2023-04-08T12:49:04;99159.97;;;13.64;77.61
69911;BME280;63555;49.920;17.868;2023-04-08T12:54:05;99158.59;;;12.93;78.00
69911;BME280;63555;49.920;17.868;2023-04-08T12:59:05;99161.56;;;12.08;79.60
69911;BME280;63555;49.920;17.868;2023-04-08T13:04:05;99155.47;;;11.24;80.43
69911;BME280;63555;49.920;17.868;2023-04-08T13:09:06;99158.34;;;10.59;81.35
69911;BME280;63555;49.920;17.868;2023-04-08T13:14:06;99157.00;;;10.13;83.28
69911;BME280;63555;49.920;17.868;2023-04-08T13:19:07;99161.03;;;10.19;84.42
69911;BME280;63555;49.920;17.868;2023-04-08T13:24:07;99158.00;;;10.25;83.52
69911;BME280;63555;49.920;17.868;2023-04-08T13:29:07;99156.03;;;10.41;83.88
69911;BME280;63555;49.920;17.868;2023-04-08T13:34:08;99148.69;;;10.96;82.48
69911;BME280;63555;49.920;17.868;2023-04-08T13:39:08;99152.00;;;10.74;80.83
69911;BME280;63555;49.920;17.868;2023-04-08T13:44:09;99152.00;;;10.23;80.79
69911;BME280;63555;49.920;17.868;2023-04-08T13:49:09;99150.28;;;9.70;81.85
69911;BME280;63555;49.920;17.868;2023-04-08T13:54:10;99144.22;;;9.55;82.61
69911;BME280;63555;49.920;17.868;2023-04-08T13:59:10;99149.13;;;9.47;81.80
69911;BME280;63555;49.920;17.868;2023-04-08T14:04:10;99144.84;;;9.32;81.27
69911;BME280;63555;49.920;17.868;2023-04-08T14:09:11;99144.50;;;9.23;81.09
69911;BME280;63555;49.920;17.868;2023-04-08T14:14:11;99147.72;;;9.14;80.22
69911;BME280;63555;49.920;17.868;2023-04-08T14:19:12;99142.44;;;9.14;80.05
69911;BME280;63555;49.920;17.868;2023-04-08T14:24:12;99139.44;;;9.20;79.88
69911;BME280;63555;49.920;17.868;2023-04-08T14:29:13;99144.09;;;9.30;78.98
69911;BME280;63555;49.920;17.868;2023-04-08T14:34:13;99140.72;;;9.27;78.11
69911;BME280;63555;49.920;17.868;2023-04-08T14:39:14;99146.72;;;9.30;77.74
69911;BME280;63555;49.920;17.868;2023-04-08T14:44:14;99156.00;;;9.08;76.78
69911;BME280;63555;49.920;17.868;2023-04-08T14:49:14;99153.47;;;8.64;76.84
69911;BME280;63555;49.920;17.868;2023-04-08T14:54:15;99150.78;;;8.21;77.42
69911;BME280;63555;49.920;17.868;2023-04-08T14:59:15;99150.81;;;7.91;77.60
69911;BME280;63555;49.920;17.868;2023-04-08T15:04:16;99157.97;;;7.74;77.69
69911;BME280;63555;49.920;17.868;2023-04-08T15:09:16;99147.16;;;7.64;77.69
69911;BME280;63555;49.920;17.868;2023-04-08T15:14:16;99155.41;;;7.72;77.90
69911;BME280;63555;49.920;17.868;2023-04-08T15:19:17;99156.16;;;7.90;75.82
69911;BME280;63555;49.920;17.868;2023-04-08T15:24:20;99162.22;;;8.06;74.88
69911;BME280;63555;49.920;17.868;2023-04-08T15:29:21;99158.28;;;8.13;73.61
69911;BME280;63555;49.920;17.868;2023-04-08T15:34:23;99162.78;;;8.11;72.85
69911;BME280;63555;49.920;17.868;2023-04-08T15:39:23;99166.78;;;8.03;72.63
69911;BME280;63555;49.920;17.868;2023-04-08T15:44:23;99170.13;;;7.90;72.66
69911;BME280;63555;49.920;17.868;2023-04-08T15:49:24;99179.22;;;7.85;72.85
69911;BME280;63555;49.920;17.868;2023-04-08T15:54:24;99175.94;;;7.81;72.79
69911;BME280;63555;49.920;17.868;2023-04-08T15:59:27;99175.41;;;7.75;72.85
69911;BME280;63555;49.920;17.868;2023-04-08T16:04:29;99186.06;;;7.72;72.97
69911;BME280;63555;49.920;17.868;2023-04-08T16:09:30;99194.38;;;7.64;72.53
69911;BME280;63555;49.920;17.868;2023-04-08T16:14:31;99203.81;;;7.52;72.66
69911;BME280;63555;49.920;17.868;2023-04-08T16:19:32;99209.47;;;7.45;72.88
69911;BME280;63555;49.920;17.868;2023-04-08T16:24:36;99202.13;;;7.35;72.54
69911;BME280;63555;49.920;17.868;2023-04-08T16:29:37;99208.56;;;7.30;73.51
69911;BME280;63555;49.920;17.868;2023-04-08T16:34:37;99207.97;;;7.25;73.89
69911;BME280;63555;49.920;17.868;2023-04-08T16:39:37;99214.38;;;7.19;74.13
69911;BME280;63555;49.920;17.868;2023-04-08T16:44:38;99212.19;;;7.12;73.60
69911;BME280;63555;49.920;17.868;2023-04-08T16:49:38;99217.59;;;7.09;74.21
69911;BME280;63555;49.920;17.868;2023-04-08T16:54:38;99214.38;;;7.03;74.05
69911;BME280;63555;49.920;17.868;2023-04-08T16:59:39;99217.31;;;6.97;74.42
69911;BME280;63555;49.920;17.868;2023-04-08T17:04:41;99231.75;;;6.89;74.86
69911;BME280;63555;49.920;17.868;2023-04-08T17:09:41;99232.06;;;6.83;75.35
69911;BME280;63555;49.920;17.868;2023-04-08T17:14:41;99243.81;;;6.76;74.50
69911;BME280;63555;49.920;17.868;2023-04-08T17:19:42;99245.13;;;6.67;75.32
69911;BME280;63555;49.920;17.868;2023-04-08T17:24:43;99244.75;;;6.57;75.65
69911;BME280;63555;49.920;17.868;2023-04-08T17:29:44;99244.47;;;6.46;75.23
69911;BME280;63555;49.920;17.868;2023-04-08T17:34:45;99253.78;;;6.34;75.58
69911;BME280;63555;49.920;17.868;2023-04-08T17:39:45;99256.19;;;6.22;76.13
69911;BME280;63555;49.920;17.868;2023-04-08T17:44:46;99262.94;;;6.09;76.94
69911;BME280;63555;49.920;17.868;2023-04-08T17:49:47;99263.28;;;6.01;77.05
69911;BME280;63555;49.920;17.868;2023-04-08T17:54:47;99268.06;;;5.93;77.09
69911;BME280;63555;49.920;17.868;2023-04-08T17:59:47;99277.25;;;5.83;76.81
69911;BME280;63555;49.920;17.868;2023-04-08T18:04:48;99288.16;;;5.73;76.83
69911;BME280;63555;49.920;17.868;2023-04-08T18:09:49;99281.66;;;5.63;77.31
69911;BME280;63555;49.920;17.868;2023-04-08T18:14:49;99291.72;;;5.54;77.75
69911;BME280;63555;49.920;17.868;2023-04-08T18:19:50;99296.72;;;5.39;77.54
69911;BME280;63555;49.920;17.868;2023-04-08T18:24:50;99309.38;;;5.30;78.35
69911;BME280;63555;49.920;17.868;2023-04-08T18:29:51;99314.09;;;5.22;78.15
69911;BME280;63555;49.920;17.868;2023-04-08T18:34:52;99309.06;;;5.17;78.62
69911;BME280;63555;49.920;17.868;2023-04-08T18:39:53;99319.56;;;5.16;78.86
69911;BME280;63555;49.920;17.868;2023-04-08T18:44:53;99317.66;;;5.19;79.00
69911;BME280;63555;49.920;17.868;2023-04-08T18:49:53;99313.25;;;5.21;79.21
69911;BME280;63555;49.920;17.868;2023-04-08T18:54:55;99320.81;;;5.27;78.62
69911;BME280;63555;49.920;17.868;2023-04-08T18:59:56;99318.78;;;5.34;79.24
69911;BME280;63555;49.920;17.868;2023-04-08T19:04:56;99318.63;;;5.37;78.91
69911;BME280;63555;49.920;17.868;2023-04-08T19:09:57;99326.41;;;5.38;79.00
69911;BME280;63555;49.920;17.868;2023-04-08T19:14:58;99336.88;;;5.38;78.83
69911;BME280;63555;49.920;17.868;2023-04-08T19:19:58;99332.44;;;5.40;78.93
69911;BME280;63555;49.920;17.868;2023-04-08T19:24:58;99331.38;;;5.44;79.51
69911;BME280;63555;49.920;17.868;2023-04-08T19:29:59;99322.38;;;5.50;79.32
69911;BME280;63555;49.920;17.868;2023-04-08T19:35:00;99326.56;;;5.54;79.44
69911;BME280;63555;49.920;17.868;2023-04-08T19:40:00;99324.78;;;5.55;79.28
69911;BME280;63555;49.920;17.868;2023-04-08T19:45:01;99327.41;;;5.55;79.35
69911;BME280;63555;49.920;17.868;2023-04-08T19:50:02;99332.50;;;5.58;79.57
69911;BME280;63555;49.920;17.868;2023-04-08T19:55:02;99333.97;;;5.63;79.81
69911;BME280;63555;49.920;17.868;2023-04-08T20:00:03;99334.75;;;5.65;79.36
69911;BME280;63555;49.920;17.868;2023-04-08T20:05:04;99344.25;;;5.68;79.47
69911;BME280;63555;49.920;17.868;2023-04-08T20:10:06;99343.09;;;5.73;79.94
69911;BME280;63555;49.920;17.868;2023-04-08T20:15:08;99342.88;;;5.78;79.64
69911;BME280;63555;49.920;17.868;2023-04-08T20:20:08;99339.56;;;5.74;79.13
69911;BME280;63555;49.920;17.868;2023-04-08T20:25:09;99336.31;;;5.69;79.42
69911;BME280;63555;49.920;17.868;2023-04-08T20:30:11;99338.28;;;5.64;79.94
69911;BME280;63555;49.920;17.868;2023-04-08T20:35:12;99345.50;;;5.59;79.93
69911;BME280;63555;49.920;17.868;2023-04-08T20:40:12;99338.88;;;5.52;79.80
69911;BME280;63555;49.920;17.868;2023-04-08T20:45:13;99343.72;;;5.41;80.17
69911;BME280;63555;49.920;17.868;2023-04-08T20:50:13;99341.53;;;5.32;80.27
69911;BME280;63555;49.920;17.868;2023-04-08T20:55:14;99352.13;;;5.29;80.63
69911;BME280;63555;49.920;17.868;2023-04-08T21:00:15;99352.97;;;5.29;81.07
69911;BME280;63555;49.920;17.868;2023-04-08T21:05:16;99356.25;;;5.34;80.92
69911;BME280;63555;49.920;17.868;2023-04-08T21:10:17;99355.19;;;5.38;80.50
69911;BME280;63555;49.920;17.868;2023-04-08T21:15:17;99356.75;;;5.42;80.51
69911;BME280;63555;49.920;17.868;2023-04-08T21:20:17;99354.13;;;5.42;80.87
69911;BME280;63555;49.920;17.868;2023-04-08T21:25:18;99358.50;;;5.42;80.63
69911;BME280;63555;49.920;17.868;2023-04-08T21:30:18;99361.06;;;5.43;81.28
69911;BME280;63555;49.920;17.868;2023-04-08T21:35:20;99363.66;;;5.43;81.05
69911;BME280;63555;49.920;17.868;2023-04-08T21:40:20;99359.22;;;5.46;80.94
69911;BME280;63555;49.920;17.868;2023-04-08T21:45:21;99367.84;;;5.48;81.34
69911;BME280;63555;49.920;17.868;2023-04-08T21:50:22;99369.41;;;5.52;80.87
69911;BME280;63555;49.920;17.868;2023-04-08T21:55:22;99363.19;;;5.54;81.08
69911;BME280;63555;49.920;17.868;2023-04-08T22:00:22;99359.72;;;5.54;81.27
69911;BME280;63555;49.920;17.868;2023-04-08T22:05:23;99357.88;;;5.56;81.28
69911;BME280;63555;49.920;17.868;2023-04-08T22:10:23;99354.50;;;5.54;81.35
69911;BME280;63555;49.920;17.868;2023-04-08T22:15:24;99362.47;;;5.51;81.27
69911;BME280;63555;49.920;17.868;2023-04-08T22:20:25;99346.91;;;5.48;81.65
69911;BME280;63555;49.920;17.868;2023-04-08T22:25:25;99344.44;;;5.44;81.23
69911;BME280;63555;49.920;17.868;2023-04-08T22:30:25;99346.41;;;5.39;81.52
69911;BME280;63555;49.920;17.868;2023-04-08T22:35:26;99341.53;;;5.32;81.56
69911;BME280;63555;49.920;17.868;2023-04-08T22:40:27;99329.44;;;5.29;81.47
69911;BME280;63555;49.920;17.868;2023-04-08T22:45:28;99344.50;;;5.24;81.70
69911;BME280;63555;49.920;17.868;2023-04-08T22:50:28;99349.03;;;5.19;81.95
69911;BME280;63555;49.920;17.868;2023-04-08T22:55:29;99352.72;;;5.15;82.36
69911;BME280;63555;49.920;17.868;2023-04-08T23:00:29;99363.38;;;5.10;82.46
69911;BME280;63555;49.920;17.868;2023-04-08T23:05:30;99368.59;;;5.10;82.34
69911;BME280;63555;49.920;17.868;2023-04-08T23:10:30;99370.22;;;5.13;82.69
69911;BME280;63555;49.920;17.868;2023-04-08T23:15:31;99371.78;;;5.17;82.60
69911;BME280;63555;49.920;17.868;2023-04-08T23:20:31;99377.81;;;5.19;82.79
69911;BME280;63555;49.920;17.868;2023-04-08T23:25:34;99364.94;;;5.15;82.57
69911;BME280;63555;49.920;17.868;2023-04-08T23:30:36;99357.50;;;5.05;82.74
69911;BME280;63555;49.920;17.868;2023-04-08T23:35:40;99363.00;;;4.99;83.16
69911;BME280;63555;49.920;17.868;2023-04-08T23:40:40;99350.06;;;4.96;83.60
69911;BME280;63555;49.920;17.868;2023-04-08T23:45:41;99353.66;;;4.94;82.87
69911;BME280;63555;49.920;17.868;2023-04-08T23:50:41;99352.16;;;4.88;83.46
69911;BME280;63555;49.920;17.868;2023-04-08T23:55:41;99359.22;;;4.86;83.70
